sensor_id;sensor_type;location;lat;lon;timestamp;P1;durP1;ratioP1;P2;durP2;ratioP2
31081;SDS011;17737;52.586;13.284;2023-03-04T00:01:30;2.65;;;2.03;;
31081;SDS011;17737;52.586;13.284;2023-03-04T00:03:58;2.53;;;1.83;;
31081;SDS011;17737;52.586;13.284;2023-03-04T00:06:26;3.58;;;2.60;;
31081;SDS011;17737;52.586;13.284;2023-03-04T00:08:54;2.80;;;1.70;;
31081;SDS011;17737;52.586;13.284;2023-03-04T00:11:25;2.28;;;1.77;;
31081;SDS011;17737;52.586;13.284;2023-03-04T00:13:54;4.13;;;2.60;;
31081;SDS011;17737;52.586;13.284;2023-03-04T00:16:23;2.92;;;2.20;;
31081;SDS011;17737;52.586;13.284;2023-03-04T00:18:52;2.58;;;1.77;;
31081;SDS011;17737;52.586;13.284;2023-03-04T00:21:21;3.53;;;2.08;;
31081;SDS011;17737;52.586;13.284;2023-03-04T00:23:49;2.92;;;2.25;;
31081;SDS011;17737;52.586;13.284;2023-03-04T00:26:18;2.85;;;1.98;;
31081;SDS011;17737;52.586;13.284;2023-03-04T00:28:48;3.13;;;2.35;;
31081;SDS011;17737;52.586;13.284;2023-03-04T00:31:17;2.65;;;1.90;;
31081;SDS011;17737;52.586;13.284;2023-03-04T00:33:45;2.70;;;1.90;;
31081;SDS011;17737;52.586;13.284;2023-03-04T00:36:13;2.35;;;1.50;;
31081;SDS011;17737;52.586;13.284;2023-03-04T00:38:41;3.30;;;1.92;;
31081;SDS011;17737;52.586;13.284;2023-03-04T00:41:09;1.92;;;1.50;;
31081;SDS011;17737;52.586;13.284;2023-03-04T00:43:37;2.97;;;1.80;;
31081;SDS011;17737;52.586;13.284;2023-03-04T00:46:05;2.80;;;1.75;;
31081;SDS011;17737;52.586;13.284;2023-03-04T00:48:35;2.15;;;1.67;;
31081;SDS011;17737;52.586;13.284;2023-03-04T00:51:04;1.90;;;1.35;;
31081;SDS011;17737;52.586;13.284;2023-03-04T00:53:32;2.83;;;1.75;;
31081;SDS011;17737;52.586;13.284;2023-03-04T00:56:00;3.17;;;1.67;;
31081;SDS011;17737;52.586;13.284;2023-03-04T00:58:28;1.40;;;1.15;;
31081;SDS011;17737;52.586;13.284;2023-03-04T01:00:56;2.15;;;1.35;;
31081;SDS011;17737;52.586;13.284;2023-03-04T01:03:24;1.48;;;1.30;;
31081;SDS011;17737;52.586;13.284;2023-03-04T01:05:57;2.95;;;1.65;;
31081;SDS011;17737;52.586;13.284;2023-03-04T01:08:26;1.83;;;1.33;;
31081;SDS011;17737;52.586;13.284;2023-03-04T01:10:54;2.45;;;1.42;;
31081;SDS011;17737;52.586;13.284;2023-03-04T01:13:22;1.73;;;1.25;;
31081;SDS011;17737;52.586;13.284;2023-03-04T01:15:50;1.42;;;1.20;;
31081;SDS011;17737;52.586;13.284;2023-03-04T01:18:18;1.83;;;1.30;;
31081;SDS011;17737;52.586;13.284;2023-03-04T01:20:46;1.65;;;1.05;;
31081;SDS011;17737;52.586;13.284;2023-03-04T01:23:15;1.80;;;1.42;;
31081;SDS011;17737;52.586;13.284;2023-03-04T01:25:43;2.08;;;1.60;;
31081;SDS011;17737;52.586;13.284;2023-03-04T01:28:11;1.65;;;1.15;;
31081;SDS011;17737;52.586;13.284;2023-03-04T01:30:39;1.30;;;1.20;;
31081;SDS011;17737;52.586;13.284;2023-03-04T01:33:07;1.20;;;1.10;;
31081;SDS011;17737;52.586;13.284;2023-03-04T01:35:35;2.65;;;1.63;;
31081;SDS011;17737;52.586;13.284;2023-03-04T01:38:03;3.65;;;1.60;;
31081;SDS011;17737;52.586;13.284;2023-03-04T01:40:33;1.60;;;1.13;;
31081;SDS011;17737;52.586;13.284;2023-03-04T01:43:01;1.52;;;1.10;;
31081;SDS011;17737;52.586;13.284;2023-03-04T01:45:29;1.92;;;1.15;;
31081;SDS011;17737;52.586;13.284;2023-03-04T01:48:00;2.63;;;1.45;;
31081;SDS011;17737;52.586;13.284;2023-03-04T01:50:30;1.20;;;1.10;;
31081;SDS011;17737;52.586;13.284;2023-03-04T01:53:02;1.65;;;1.10;;
31081;SDS011;17737;52.586;13.284;2023-03-04T01:55:30;1.65;;;0.98;;
31081;SDS011;17737;52.586;13.284;2023-03-04T01:58:00;2.20;;;1.50;;
31081;SDS011;17737;52.586;13.284;2023-03-04T02:00:28;1.83;;;1.23;;
31081;SDS011;17737;52.586;13.284;2023-03-04T02:02:59;1.40;;;1.10;;
31081;SDS011;17737;52.586;13.284;2023-03-04T02:05:32;1.20;;;0.90;;
31081;SDS011;17737;52.586;13.284;2023-03-04T02:08:03;2.08;;;1.13;;
31081;SDS011;17737;52.586;13.284;2023-03-04T02:10:33;1.00;;;0.90;;
31081;SDS011;17737;52.586;13.284;2023-03-04T02:13:02;0.93;;;0.82;;
31081;SDS011;17737;52.586;13.284;2023-03-04T02:15:30;1.10;;;0.90;;
31081;SDS011;17737;52.586;13.284;2023-03-04T02:17:59;2.70;;;0.95;;
31081;SDS011;17737;52.586;13.284;2023-03-04T02:20:31;1.17;;;0.95;;
31081;SDS011;17737;52.586;13.284;2023-03-04T02:23:11;1.95;;;0.98;;
31081;SDS011;17737;52.586;13.284;2023-03-04T02:28:50;1.95;;;1.20;;
31081;SDS011;17737;52.586;13.284;2023-03-04T02:31:22;2.20;;;1.08;;
31081;SDS011;17737;52.586;13.284;2023-03-04T02:33:55;1.50;;;1.10;;
31081;SDS011;17737;52.586;13.284;2023-03-04T02:36:26;2.42;;;1.52;;
31081;SDS011;17737;52.586;13.284;2023-03-04T02:39:00;1.45;;;1.10;;
31081;SDS011;17737;52.586;13.284;2023-03-04T02:41:33;1.88;;;1.25;;
31081;SDS011;17737;52.586;13.284;2023-03-04T02:46:29;1.55;;;1.10;;
31081;SDS011;17737;52.586;13.284;2023-03-04T02:48:57;3.22;;;1.33;;
31081;SDS011;17737;52.586;13.284;2023-03-04T02:51:25;1.67;;;1.00;;
31081;SDS011;17737;52.586;13.284;2023-03-04T02:53:53;1.33;;;1.00;;
31081;SDS011;17737;52.586;13.284;2023-03-04T02:56:21;0.93;;;0.82;;
31081;SDS011;17737;52.586;13.284;2023-03-04T02:58:50;1.17;;;0.70;;
31081;SDS011;17737;52.586;13.284;2023-03-04T03:01:18;2.13;;;1.20;;
31081;SDS011;17737;52.586;13.284;2023-03-04T03:03:46;0.80;;;0.80;;
31081;SDS011;17737;52.586;13.284;2023-03-04T03:06:15;1.55;;;0.80;;
31081;SDS011;17737;52.586;13.284;2023-03-04T03:08:43;1.67;;;0.95;;
31081;SDS011;17737;52.586;13.284;2023-03-04T03:11:11;2.22;;;0.82;;
31081;SDS011;17737;52.586;13.284;2023-03-04T03:13:39;1.33;;;0.90;;
31081;SDS011;17737;52.586;13.284;2023-03-04T03:16:08;1.65;;;1.00;;
31081;SDS011;17737;52.586;13.284;2023-03-04T03:18:36;2.47;;;1.10;;
31081;SDS011;17737;52.586;13.284;2023-03-04T03:21:04;1.40;;;0.90;;
31081;SDS011;17737;52.586;13.284;2023-03-04T03:23:32;1.67;;;0.70;;
31081;SDS011;17737;52.586;13.284;2023-03-04T03:26:01;2.10;;;1.20;;
31081;SDS011;17737;52.586;13.284;2023-03-04T03:28:29;2.15;;;1.00;;
31081;SDS011;17737;52.586;13.284;2023-03-04T03:30:57;1.95;;;1.13;;
31081;SDS011;17737;52.586;13.284;2023-03-04T03:33:27;1.40;;;1.10;;
31081;SDS011;17737;52.586;13.284;2023-03-04T03:35:55;1.35;;;1.00;;
31081;SDS011;17737;52.586;13.284;2023-03-04T03:38:23;1.55;;;1.10;;
31081;SDS011;17737;52.586;13.284;2023-03-04T03:40:51;2.33;;;1.13;;
31081;SDS011;17737;52.586;13.284;2023-03-04T03:43:19;1.55;;;1.10;;
31081;SDS011;17737;52.586;13.284;2023-03-04T03:45:47;1.95;;;0.93;;
31081;SDS011;17737;52.586;13.284;2023-03-04T03:50:46;1.95;;;0.95;;
31081;SDS011;17737;52.586;13.284;2023-03-04T03:53:14;1.65;;;1.05;;
31081;SDS011;17737;52.586;13.284;2023-03-04T03:55:42;1.23;;;0.90;;
31081;SDS011;17737;52.586;13.284;2023-03-04T03:58:10;1.23;;;1.13;;
31081;SDS011;17737;52.586;13.284;2023-03-04T04:00:38;0.75;;;0.60;;
31081;SDS011;17737;52.586;13.284;2023-03-04T04:03:06;1.33;;;0.82;;
31081;SDS011;17737;52.586;13.284;2023-03-04T04:05:34;1.02;;;0.90;;
31081;SDS011;17737;52.586;13.284;2023-03-04T04:08:04;0.73;;;0.73;;
31081;SDS011;17737;52.586;13.284;2023-03-04T04:10:32;2.08;;;1.10;;
31081;SDS011;17737;52.586;13.284;2023-03-04T04:13:00;0.90;;;0.70;;
31081;SDS011;17737;52.586;13.284;2023-03-04T04:15:27;1.05;;;0.90;;
31081;SDS011;17737;52.586;13.284;2023-03-04T04:17:55;1.92;;;0.77;;
31081;SDS011;17737;52.586;13.284;2023-03-04T04:20:23;1.40;;;0.95;;
31081;SDS011;17737;52.586;13.284;2023-03-04T04:22:51;2.13;;;0.90;;
31081;SDS011;17737;52.586;13.284;2023-03-04T04:25:21;1.73;;;1.00;;
31081;SDS011;17737;52.586;13.284;2023-03-04T04:27:49;1.50;;;1.05;;
31081;SDS011;17737;52.586;13.284;2023-03-04T04:30:17;0.88;;;0.70;;
31081;SDS011;17737;52.586;13.284;2023-03-04T04:32:45;1.73;;;0.88;;
31081;SDS011;17737;52.586;13.284;2023-03-04T04:35:13;1.00;;;0.70;;
31081;SDS011;17737;52.586;13.284;2023-03-04T04:37:41;1.23;;;0.77;;
31081;SDS011;17737;52.586;13.284;2023-03-04T04:40:09;1.30;;;1.17;;
31081;SDS011;17737;52.586;13.284;2023-03-04T04:42:40;1.80;;;1.10;;
31081;SDS011;17737;52.586;13.284;2023-03-04T04:45:08;0.90;;;0.73;;
31081;SDS011;17737;52.586;13.284;2023-03-04T04:47:37;2.08;;;1.02;;
31081;SDS011;17737;52.586;13.284;2023-03-04T04:50:05;0.43;;;0.43;;
31081;SDS011;17737;52.586;13.284;2023-03-04T04:52:35;0.73;;;0.73;;
31081;SDS011;17737;52.586;13.284;2023-03-04T04:55:03;0.90;;;0.90;;
31081;SDS011;17737;52.586;13.284;2023-03-04T04:57:32;1.27;;;0.73;;
31081;SDS011;17737;52.586;13.284;2023-03-04T05:00:03;1.10;;;0.70;;
31081;SDS011;17737;52.586;13.284;2023-03-04T05:02:32;1.23;;;0.88;;
31081;SDS011;17737;52.586;13.284;2023-03-04T05:05:01;0.75;;;0.73;;
31081;SDS011;17737;52.586;13.284;2023-03-04T05:07:29;1.73;;;0.95;;
31081;SDS011;17737;52.586;13.284;2023-03-04T05:09:57;0.73;;;0.60;;
31081;SDS011;17737;52.586;13.284;2023-03-04T05:12:25;1.92;;;1.10;;
31081;SDS011;17737;52.586;13.284;2023-03-04T05:14:53;1.45;;;0.93;;
31081;SDS011;17737;52.586;13.284;2023-03-04T05:17:23;1.08;;;0.70;;
31081;SDS011;17737;52.586;13.284;2023-03-04T05:19:51;0.70;;;0.70;;
31081;SDS011;17737;52.586;13.284;2023-03-04T05:22:19;1.67;;;0.75;;
31081;SDS011;17737;52.586;13.284;2023-03-04T05:24:47;1.25;;;0.75;;
31081;SDS011;17737;52.586;13.284;2023-03-04T05:27:14;0.73;;;0.60;;
31081;SDS011;17737;52.586;13.284;2023-03-04T05:29:42;0.65;;;0.60;;
31081;SDS011;17737;52.586;13.284;2023-03-04T05:32:12;0.47;;;0.47;;
31081;SDS011;17737;52.586;13.284;2023-03-04T05:34:41;1.58;;;0.90;;
31081;SDS011;17737;52.586;13.284;2023-03-04T05:37:09;1.80;;;0.95;;
31081;SDS011;17737;52.586;13.284;2023-03-04T05:39:37;1.13;;;0.80;;
31081;SDS011;17737;52.586;13.284;2023-03-04T05:42:06;0.98;;;0.70;;
31081;SDS011;17737;52.586;13.284;2023-03-04T05:44:34;0.88;;;0.70;;
31081;SDS011;17737;52.586;13.284;2023-03-04T05:47:02;0.90;;;0.80;;
31081;SDS011;17737;52.586;13.284;2023-03-04T05:49:30;1.73;;;1.00;;
31081;SDS011;17737;52.586;13.284;2023-03-04T05:52:00;1.00;;;0.70;;
31081;SDS011;17737;52.586;13.284;2023-03-04T05:54:28;0.80;;;0.80;;
31081;SDS011;17737;52.586;13.284;2023-03-04T05:56:56;0.60;;;0.60;;
31081;SDS011;17737;52.586;13.284;2023-03-04T05:59:24;1.13;;;0.77;;
31081;SDS011;17737;52.586;13.284;2023-03-04T06:01:52;1.05;;;0.70;;
31081;SDS011;17737;52.586;13.284;2023-03-04T06:04:20;0.82;;;0.70;;
31081;SDS011;17737;52.586;13.284;2023-03-04T06:06:48;0.65;;;0.63;;
31081;SDS011;17737;52.586;13.284;2023-03-04T06:09:17;0.73;;;0.70;;
31081;SDS011;17737;52.586;13.284;2023-03-04T06:11:46;0.68;;;0.60;;
31081;SDS011;17737;52.586;13.284;2023-03-04T06:14:14;0.65;;;0.65;;
31081;SDS011;17737;52.586;13.284;2023-03-04T06:16:42;0.77;;;0.77;;
31081;SDS011;17737;52.586;13.284;2023-03-04T06:19:10;0.90;;;0.77;;
31081;SDS011;17737;52.586;13.284;2023-03-04T06:21:38;0.68;;;0.68;;
31081;SDS011;17737;52.586;13.284;2023-03-04T06:24:06;0.68;;;0.65;;
31081;SDS011;17737;52.586;13.284;2023-03-04T06:26:36;0.75;;;0.63;;
31081;SDS011;17737;52.586;13.284;2023-03-04T06:29:04;0.95;;;0.70;;
31081;SDS011;17737;52.586;13.284;2023-03-04T06:31:32;0.95;;;0.70;;
31081;SDS011;17737;52.586;13.284;2023-03-04T06:34:00;0.98;;;0.75;;
31081;SDS011;17737;52.586;13.284;2023-03-04T06:36:29;0.88;;;0.80;;
31081;SDS011;17737;52.586;13.284;2023-03-04T06:38:57;0.70;;;0.70;;
31081;SDS011;17737;52.586;13.284;2023-03-04T06:41:25;0.95;;;0.80;;
31081;SDS011;17737;52.586;13.284;2023-03-04T06:43:54;0.63;;;0.63;;
31081;SDS011;17737;52.586;13.284;2023-03-04T06:46:22;0.50;;;0.50;;
31081;SDS011;17737;52.586;13.284;2023-03-04T06:48:51;0.50;;;0.50;;
31081;SDS011;17737;52.586;13.284;2023-03-04T06:51:19;0.98;;;0.85;;
31081;SDS011;17737;52.586;13.284;2023-03-04T06:53:47;0.40;;;0.40;;
31081;SDS011;17737;52.586;13.284;2023-03-04T06:56:15;0.60;;;0.60;;
31081;SDS011;17737;52.586;13.284;2023-03-04T06:58:43;0.47;;;0.47;;
31081;SDS011;17737;52.586;13.284;2023-03-04T07:01:14;1.45;;;0.70;;
31081;SDS011;17737;52.586;13.284;2023-03-04T07:03:45;2.13;;;0.70;;
31081;SDS011;17737;52.586;13.284;2023-03-04T07:06:16;0.50;;;0.50;;
31081;SDS011;17737;52.586;13.284;2023-03-04T07:08:47;0.60;;;0.60;;
31081;SDS011;17737;52.586;13.284;2023-03-04T07:11:16;0.55;;;0.55;;
31081;SDS011;17737;52.586;13.284;2023-03-04T07:13:45;0.80;;;0.50;;
31081;SDS011;17737;52.586;13.284;2023-03-04T07:16:16;0.60;;;0.60;;
31081;SDS011;17737;52.586;13.284;2023-03-04T07:18:46;0.82;;;0.70;;
31081;SDS011;17737;52.586;13.284;2023-03-04T07:21:15;0.82;;;0.60;;
31081;SDS011;17737;52.586;13.284;2023-03-04T07:23:44;0.82;;;0.68;;
31081;SDS011;17737;52.586;13.284;2023-03-04T07:26:13;1.33;;;0.70;;
31081;SDS011;17737;52.586;13.284;2023-03-04T07:28:41;0.47;;;0.47;;
31081;SDS011;17737;52.586;13.284;2023-03-04T07:31:10;1.17;;;0.70;;
31081;SDS011;17737;52.586;13.284;2023-03-04T07:33:46;0.93;;;0.45;;
31081;SDS011;17737;52.586;13.284;2023-03-04T07:36:14;0.70;;;0.70;;
31081;SDS011;17737;52.586;13.284;2023-03-04T07:38:45;0.40;;;0.40;;
31081;SDS011;17737;52.586;13.284;2023-03-04T07:41:15;0.95;;;0.60;;
31081;SDS011;17737;52.586;13.284;2023-03-04T07:43:44;0.50;;;0.50;;
31081;SDS011;17737;52.586;13.284;2023-03-04T07:46:13;1.10;;;0.93;;
31081;SDS011;17737;52.586;13.284;2023-03-04T07:48:42;0.50;;;0.50;;
31081;SDS011;17737;52.586;13.284;2023-03-04T07:51:12;0.50;;;0.50;;
31081;SDS011;17737;52.586;13.284;2023-03-04T07:53:44;1.00;;;0.60;;
31081;SDS011;17737;52.586;13.284;2023-03-04T07:56:15;0.68;;;0.60;;
31081;SDS011;17737;52.586;13.284;2023-03-04T07:58:45;0.40;;;0.40;;
31081;SDS011;17737;52.586;13.284;2023-03-04T08:01:14;0.60;;;0.60;;
31081;SDS011;17737;52.586;13.284;2023-03-04T08:03:44;0.60;;;0.60;;
31081;SDS011;17737;52.586;13.284;2023-03-04T08:06:14;0.70;;;0.70;;
31081;SDS011;17737;52.586;13.284;2023-03-04T08:08:45;0.68;;;0.60;;
31081;SDS011;17737;52.586;13.284;2023-03-04T08:11:14;0.73;;;0.70;;
31081;SDS011;17737;52.586;13.284;2023-03-04T08:13:45;0.85;;;0.77;;
31081;SDS011;17737;52.586;13.284;2023-03-04T08:16:14;1.00;;;0.73;;
31081;SDS011;17737;52.586;13.284;2023-03-04T08:18:44;0.65;;;0.65;;
31081;SDS011;17737;52.586;13.284;2023-03-04T08:21:16;0.55;;;0.55;;
31081;SDS011;17737;52.586;13.284;2023-03-04T08:23:47;0.68;;;0.57;;
31081;SDS011;17737;52.586;13.284;2023-03-04T08:26:17;0.40;;;0.40;;
31081;SDS011;17737;52.586;13.284;2023-03-04T08:28:53;0.45;;;0.40;;
31081;SDS011;17737;52.586;13.284;2023-03-04T08:31:22;0.40;;;0.40;;
31081;SDS011;17737;52.586;13.284;2023-03-04T08:33:51;0.98;;;0.73;;
31081;SDS011;17737;52.586;13.284;2023-03-04T08:36:20;1.38;;;0.70;;
31081;SDS011;17737;52.586;13.284;2023-03-04T08:38:48;0.60;;;0.60;;
31081;SDS011;17737;52.586;13.284;2023-03-04T08:41:16;1.08;;;0.70;;
31081;SDS011;17737;52.586;13.284;2023-03-04T08:43:44;0.93;;;0.60;;
31081;SDS011;17737;52.586;13.284;2023-03-04T08:46:12;1.10;;;0.80;;
31081;SDS011;17737;52.586;13.284;2023-03-04T08:48:40;0.50;;;0.50;;
31081;SDS011;17737;52.586;13.284;2023-03-04T08:51:08;0.63;;;0.50;;
31081;SDS011;17737;52.586;13.284;2023-03-04T08:53:40;0.60;;;0.60;;
31081;SDS011;17737;52.586;13.284;2023-03-04T08:56:09;0.70;;;0.70;;
31081;SDS011;17737;52.586;13.284;2023-03-04T09:01:06;0.68;;;0.68;;
31081;SDS011;17737;52.586;13.284;2023-03-04T09:03:37;0.75;;;0.70;;
31081;SDS011;17737;52.586;13.284;2023-03-04T09:06:06;0.40;;;0.40;;
31081;SDS011;17737;52.586;13.284;2023-03-04T09:08:37;0.52;;;0.52;;
31081;SDS011;17737;52.586;13.284;2023-03-04T09:11:07;0.68;;;0.68;;
31081;SDS011;17737;52.586;13.284;2023-03-04T09:13:35;0.50;;;0.50;;
31081;SDS011;17737;52.586;13.284;2023-03-04T09:16:07;0.60;;;0.60;;
31081;SDS011;17737;52.586;13.284;2023-03-04T09:18:40;0.98;;;0.65;;
31081;SDS011;17737;52.586;13.284;2023-03-04T09:21:09;0.55;;;0.50;;
31081;SDS011;17737;52.586;13.284;2023-03-04T09:23:37;0.68;;;0.60;;
31081;SDS011;17737;52.586;13.284;2023-03-04T09:26:13;0.60;;;0.50;;
31081;SDS011;17737;52.586;13.284;2023-03-04T09:28:49;1.33;;;0.77;;
31081;SDS011;17737;52.586;13.284;2023-03-04T09:31:18;0.70;;;0.70;;
31081;SDS011;17737;52.586;13.284;2023-03-04T09:33:47;0.87;;;0.67;;
31081;SDS011;17737;52.586;13.284;2023-03-04T09:36:15;1.07;;;0.67;;
31081;SDS011;17737;52.586;13.284;2023-03-04T09:38:43;0.60;;;0.60;;
31081;SDS011;17737;52.586;13.284;2023-03-04T09:41:14;1.17;;;0.85;;
31081;SDS011;17737;52.586;13.284;2023-03-04T09:43:47;0.52;;;0.52;;
31081;SDS011;17737;52.586;13.284;2023-03-04T09:46:21;0.90;;;0.77;;
31081;SDS011;17737;52.586;13.284;2023-03-04T09:49:04;0.50;;;0.47;;
31081;SDS011;17737;52.586;13.284;2023-03-04T09:51:38;0.57;;;0.50;;
31081;SDS011;17737;52.586;13.284;2023-03-04T09:54:16;0.63;;;0.63;;
31081;SDS011;17737;52.586;13.284;2023-03-04T09:57:03;0.70;;;0.60;;
31081;SDS011;17737;52.586;13.284;2023-03-04T09:59:47;0.47;;;0.47;;
31081;SDS011;17737;52.586;13.284;2023-03-04T10:02:35;0.60;;;0.60;;
31081;SDS011;17737;52.586;13.284;2023-03-04T10:05:13;0.60;;;0.60;;
31081;SDS011;17737;52.586;13.284;2023-03-04T10:07:47;0.60;;;0.60;;
31081;SDS011;17737;52.586;13.284;2023-03-04T10:10:26;0.77;;;0.65;;
31081;SDS011;17737;52.586;13.284;2023-03-04T10:12:59;0.80;;;0.70;;
31081;SDS011;17737;52.586;13.284;2023-03-04T10:15:32;0.57;;;0.57;;
31081;SDS011;17737;52.586;13.284;2023-03-04T10:18:10;0.85;;;0.65;;
31081;SDS011;17737;52.586;13.284;2023-03-04T10:20:48;0.50;;;0.50;;
31081;SDS011;17737;52.586;13.284;2023-03-04T10:23:23;0.60;;;0.60;;
31081;SDS011;17737;52.586;13.284;2023-03-04T10:25:54;1.08;;;0.70;;
31081;SDS011;17737;52.586;13.284;2023-03-04T10:28:25;0.85;;;0.80;;
31081;SDS011;17737;52.586;13.284;2023-03-04T10:30:57;0.75;;;0.63;;
31081;SDS011;17737;52.586;13.284;2023-03-04T10:33:33;0.93;;;0.70;;
31081;SDS011;17737;52.586;13.284;2023-03-04T10:36:03;0.60;;;0.60;;
31081;SDS011;17737;52.586;13.284;2023-03-04T10:38:40;1.08;;;0.68;;
31081;SDS011;17737;52.586;13.284;2023-03-04T10:41:12;0.60;;;0.60;;
31081;SDS011;17737;52.586;13.284;2023-03-04T10:43:45;1.00;;;0.70;;
31081;SDS011;17737;52.586;13.284;2023-03-04T10:46:26;1.00;;;0.90;;
31081;SDS011;17737;52.586;13.284;2023-03-04T10:48:54;1.33;;;0.90;;
31081;SDS011;17737;52.586;13.284;2023-03-04T10:51:23;0.60;;;0.60;;
31081;SDS011;17737;52.586;13.284;2023-03-04T10:53:55;1.00;;;0.75;;
31081;SDS011;17737;52.586;13.284;2023-03-04T10:56:31;0.50;;;0.50;;
31081;SDS011;17737;52.586;13.284;2023-03-04T11:02:19;0.60;;;0.60;;
31081;SDS011;17737;52.586;13.284;2023-03-04T11:04:55;0.70;;;0.68;;
31081;SDS011;17737;52.586;13.284;2023-03-04T11:07:36;0.80;;;0.70;;
31081;SDS011;17737;52.586;13.284;2023-03-04T11:10:22;0.68;;;0.60;;
31081;SDS011;17737;52.586;13.284;2023-03-04T11:12:55;0.93;;;0.80;;
31081;SDS011;17737;52.586;13.284;2023-03-04T11:15:29;0.80;;;0.70;;
31081;SDS011;17737;52.586;13.284;2023-03-04T11:18:16;0.77;;;0.77;;
31081;SDS011;17737;52.586;13.284;2023-03-04T11:20:51;0.63;;;0.60;;
31081;SDS011;17737;52.586;13.284;2023-03-04T11:23:24;0.57;;;0.55;;
31081;SDS011;17737;52.586;13.284;2023-03-04T11:26:08;1.05;;;0.63;;
31081;SDS011;17737;52.586;13.284;2023-03-04T11:28:43;0.73;;;0.70;;
31081;SDS011;17737;52.586;13.284;2023-03-04T11:31:22;0.70;;;0.65;;
31081;SDS011;17737;52.586;13.284;2023-03-04T11:33:57;0.65;;;0.60;;
31081;SDS011;17737;52.586;13.284;2023-03-04T11:36:39;0.68;;;0.60;;
31081;SDS011;17737;52.586;13.284;2023-03-04T11:39:23;0.50;;;0.50;;
31081;SDS011;17737;52.586;13.284;2023-03-04T11:42:03;0.70;;;0.70;;
31081;SDS011;17737;52.586;13.284;2023-03-04T11:44:44;0.80;;;0.70;;
31081;SDS011;17737;52.586;13.284;2023-03-04T11:47:22;1.15;;;0.90;;
31081;SDS011;17737;52.586;13.284;2023-03-04T11:59:15;0.52;;;0.43;;
31081;SDS011;17737;52.586;13.284;2023-03-04T12:02:15;0.80;;;0.73;;
31081;SDS011;17737;52.586;13.284;2023-03-04T12:04:58;1.73;;;0.90;;
31081;SDS011;17737;52.586;13.284;2023-03-04T12:10:48;0.68;;;0.60;;
31081;SDS011;17737;52.586;13.284;2023-03-04T12:13:36;0.80;;;0.80;;
31081;SDS011;17737;52.586;13.284;2023-03-04T12:16:52;0.60;;;0.60;;
31081;SDS011;17737;52.586;13.284;2023-03-04T12:19:41;0.57;;;0.50;;
31081;SDS011;17737;52.586;13.284;2023-03-04T12:22:31;0.60;;;0.60;;
31081;SDS011;17737;52.586;13.284;2023-03-04T12:31:32;0.60;;;0.60;;
31081;SDS011;17737;52.586;13.284;2023-03-04T12:37:22;0.40;;;0.40;;
31081;SDS011;17737;52.586;13.284;2023-03-04T12:40:23;0.70;;;0.70;;
31081;SDS011;17737;52.586;13.284;2023-03-04T12:43:11;0.52;;;0.52;;
31081;SDS011;17737;52.586;13.284;2023-03-04T12:46:15;0.57;;;0.50;;
31081;SDS011;17737;52.586;13.284;2023-03-04T12:48:58;1.45;;;0.80;;
31081;SDS011;17737;52.586;13.284;2023-03-04T12:51:51;0.40;;;0.40;;
31081;SDS011;17737;52.586;13.284;2023-03-04T12:54:35;0.60;;;0.60;;
31081;SDS011;17737;52.586;13.284;2023-03-04T12:57:08;0.52;;;0.50;;
31081;SDS011;17737;52.586;13.284;2023-03-04T12:59:42;0.65;;;0.65;;
31081;SDS011;17737;52.586;13.284;2023-03-04T13:02:24;0.55;;;0.50;;
31081;SDS011;17737;52.586;13.284;2023-03-04T13:07:53;0.60;;;0.60;;
31081;SDS011;17737;52.586;13.284;2023-03-04T13:10:33;0.70;;;0.50;;
31081;SDS011;17737;52.586;13.284;2023-03-04T13:13:01;0.80;;;0.70;;
31081;SDS011;17737;52.586;13.284;2023-03-04T13:15:32;0.68;;;0.60;;
31081;SDS011;17737;52.586;13.284;2023-03-04T13:18:16;0.68;;;0.68;;
31081;SDS011;17737;52.586;13.284;2023-03-04T13:21:04;0.50;;;0.50;;
31081;SDS011;17737;52.586;13.284;2023-03-04T13:23:48;0.65;;;0.63;;
31081;SDS011;17737;52.586;13.284;2023-03-04T13:26:22;0.73;;;0.73;;
31081;SDS011;17737;52.586;13.284;2023-03-04T13:29:10;0.70;;;0.70;;
31081;SDS011;17737;52.586;13.284;2023-03-04T13:32:00;0.80;;;0.60;;
31081;SDS011;17737;52.586;13.284;2023-03-04T13:34:41;0.73;;;0.50;;
31081;SDS011;17737;52.586;13.284;2023-03-04T13:40:22;0.70;;;0.70;;
31081;SDS011;17737;52.586;13.284;2023-03-04T13:45:55;0.63;;;0.60;;
31081;SDS011;17737;52.586;13.284;2023-03-04T13:48:28;1.38;;;0.90;;
31081;SDS011;17737;52.586;13.284;2023-03-04T13:51:02;1.15;;;0.80;;
31081;SDS011;17737;52.586;13.284;2023-03-04T13:53:43;0.45;;;0.43;;
31081;SDS011;17737;52.586;13.284;2023-03-04T13:56:21;1.13;;;0.68;;
31081;SDS011;17737;52.586;13.284;2023-03-04T14:02:00;0.60;;;0.60;;
31081;SDS011;17737;52.586;13.284;2023-03-04T14:04:40;0.52;;;0.52;;
31081;SDS011;17737;52.586;13.284;2023-03-04T14:07:18;0.60;;;0.60;;
31081;SDS011;17737;52.586;13.284;2023-03-04T14:09:55;0.88;;;0.60;;
31081;SDS011;17737;52.586;13.284;2023-03-04T14:12:29;0.57;;;0.57;;
31081;SDS011;17737;52.586;13.284;2023-03-04T14:15:02;0.73;;;0.73;;
31081;SDS011;17737;52.586;13.284;2023-03-04T14:17:46;0.60;;;0.50;;
31081;SDS011;17737;52.586;13.284;2023-03-04T14:20:26;1.00;;;0.55;;
31081;SDS011;17737;52.586;13.284;2023-03-04T14:22:56;0.80;;;0.77;;
31081;SDS011;17737;52.586;13.284;2023-03-04T14:25:26;0.80;;;0.50;;
31081;SDS011;17737;52.586;13.284;2023-03-04T14:28:04;0.68;;;0.63;;
31081;SDS011;17737;52.586;13.284;2023-03-04T14:30:39;0.70;;;0.60;;
31081;SDS011;17737;52.586;13.284;2023-03-04T14:33:13;1.08;;;0.75;;
31081;SDS011;17737;52.586;13.284;2023-03-04T14:35:46;1.23;;;0.77;;
31081;SDS011;17737;52.586;13.284;2023-03-04T14:38:18;1.05;;;0.70;;
31081;SDS011;17737;52.586;13.284;2023-03-04T14:40:53;0.55;;;0.55;;
31081;SDS011;17737;52.586;13.284;2023-03-04T14:43:26;0.80;;;0.60;;
31081;SDS011;17737;52.586;13.284;2023-03-04T14:45:59;0.88;;;0.63;;
31081;SDS011;17737;52.586;13.284;2023-03-04T14:48:30;1.23;;;0.70;;
31081;SDS011;17737;52.586;13.284;2023-03-04T14:51:01;0.98;;;0.70;;
31081;SDS011;17737;52.586;13.284;2023-03-04T14:53:31;0.90;;;0.60;;
31081;SDS011;17737;52.586;13.284;2023-03-04T14:56:01;0.80;;;0.73;;
31081;SDS011;17737;52.586;13.284;2023-03-04T14:58:32;0.93;;;0.60;;
31081;SDS011;17737;52.586;13.284;2023-03-04T15:01:12;0.80;;;0.70;;
31081;SDS011;17737;52.586;13.284;2023-03-04T15:03:43;1.10;;;0.80;;
31081;SDS011;17737;52.586;13.284;2023-03-04T15:06:24;0.47;;;0.47;;
31081;SDS011;17737;52.586;13.284;2023-03-04T15:08:56;0.98;;;0.80;;
31081;SDS011;17737;52.586;13.284;2023-03-04T15:11:28;0.77;;;0.50;;
31081;SDS011;17737;52.586;13.284;2023-03-04T15:13:59;0.77;;;0.57;;
31081;SDS011;17737;52.586;13.284;2023-03-04T15:16:51;0.55;;;0.52;;
31081;SDS011;17737;52.586;13.284;2023-03-04T15:19:23;1.20;;;0.75;;
31081;SDS011;17737;52.586;13.284;2023-03-04T15:22:01;0.90;;;0.60;;
31081;SDS011;17737;52.586;13.284;2023-03-04T15:24:31;0.73;;;0.60;;
31081;SDS011;17737;52.586;13.284;2023-03-04T15:26:59;0.70;;;0.60;;
31081;SDS011;17737;52.586;13.284;2023-03-04T15:29:29;0.80;;;0.60;;
31081;SDS011;17737;52.586;13.284;2023-03-04T15:31:59;0.93;;;0.70;;
31081;SDS011;17737;52.586;13.284;2023-03-04T15:34:26;1.50;;;0.70;;
31081;SDS011;17737;52.586;13.284;2023-03-04T15:36:54;1.35;;;0.80;;
31081;SDS011;17737;52.586;13.284;2023-03-04T15:39:25;2.63;;;1.05;;
31081;SDS011;17737;52.586;13.284;2023-03-04T15:41:54;1.60;;;1.08;;
31081;SDS011;17737;52.586;13.284;2023-03-04T15:44:22;0.93;;;0.75;;
31081;SDS011;17737;52.586;13.284;2023-03-04T15:46:50;1.48;;;0.88;;
31081;SDS011;17737;52.586;13.284;2023-03-04T15:49:19;0.77;;;0.70;;